Time;durP1;ratioP1;P1;durP2;ratioP2;P2;SDS_P1;SDS_P2;PMS_P1;PMS_P2;Temp;Humidity;BMP_temperature;BMP_pressure;BME280_temperature;BME280_humidity;BME280_pressure;Samples;Min_cycle;Max_cycle;Signal;HPM_P1;HPM_P2
2022/06/10 00:00:03;;;;;;;2.65;2.45;;;;;;;21.06;nan;94242.34;5073144;28;20241;-71
2022/06/10 00:02:30;;;;;;;3.28;2.80;;;;;;;20.61;nan;94241.97;5075864;28;20194;-69
2022/06/10 00:04:59;;;;;;;3.13;3.00;;;;;;;20.30;nan;94247.13;5075046;28;20295;-69
2022/06/10 00:07:27;;;;;;;9.85;3.13;;;;;;;20.11;nan;94247.06;5076125;28;20300;-70
2022/06/10 00:09:53;;;;;;;3.70;3.40;;;;;;;19.91;nan;94240.16;5075074;28;20247;-70
2022/06/10 00:12:21;;;;;;;5.18;3.33;;;;;;;19.93;nan;94240.88;5075052;28;20659;-70
2022/06/10 00:14:47;;;;;;;3.30;3.10;;;;;;;20.09;nan;94232.66;5073786;28;20202;-70
2022/06/10 00:17:14;;;;;;;3.88;3.63;;;;;;;20.22;nan;94239.25;5073691;28;20211;-72
2022/06/10 00:19:41;;;;;;;3.22;3.03;;;;;;;20.55;nan;94239.91;5074236;28;20217;-70
2022/06/10 00:22:09;;;;;;;3.42;3.13;;;;;;;20.87;nan;94248.31;5073867;28;20198;-71
2022/06/10 00:24:37;;;;;;;3.55;3.35;;;;;;;21.18;nan;94243.03;5074072;28;21480;-70
2022/06/10 00:27:04;;;;;;;3.63;3.42;;;;;;;21.41;nan;94231.50;5074128;28;20234;-70
2022/06/10 00:29:31;;;;;;;7.53;6.82;;;;;;;21.51;nan;94232.34;5074595;28;20280;-70
2022/06/10 00:31:58;;;;;;;3.03;2.88;;;;;;;21.45;nan;94229.47;5074069;28;20336;-69
2022/06/10 00:34:28;;;;;;;5.68;3.42;;;;;;;21.17;nan;94228.50;5074159;28;20201;-69
2022/06/10 00:36:56;;;;;;;3.25;2.95;;;;;;;20.90;nan;94229.97;5074680;28;20202;-70
2022/06/10 00:39:24;;;;;;;2.92;2.78;;;;;;;20.70;nan;94229.13;5072441;28;20225;-70
2022/06/10 00:41:51;;;;;;;3.13;2.92;;;;;;;20.57;nan;94225.13;5073624;28;20229;-70
2022/06/10 00:44:32;;;;;;;3.00;2.90;;;;;;;20.21;nan;94229.88;5074187;28;20316;-70
2022/06/10 00:47:00;;;;;;;4.82;3.10;;;;;;;20.32;nan;94223.78;5073978;28;20673;-72
2022/06/10 00:49:26;;;;;;;4.53;4.15;;;;;;;20.22;nan;94223.78;5069794;28;20296;-70
2022/06/10 00:51:56;;;;;;;6.20;5.70;;;;;;;20.29;nan;94224.84;5073394;28;20205;-70
2022/06/10 00:54:30;;;;;;;6.28;5.68;;;;;;;19.99;nan;94210.22;5073176;28;20206;-69
2022/06/10 00:57:02;;;;;;;5.80;5.40;;;;;;;19.97;nan;94219.03;5073144;28;20243;-70
2022/06/10 00:59:34;;;;;;;5.80;5.00;;;;;;;20.25;nan;94218.34;5074507;28;20266;-69
2022/06/10 01:02:04;;;;;;;5.38;4.45;;;;;;;20.31;nan;94222.97;5075250;28;20322;-71
2022/06/10 01:04:33;;;;;;;6.07;5.10;;;;;;;20.26;nan;94220.00;5072700;28;20293;-70
2022/06/10 01:07:00;;;;;;;4.75;4.35;;;;;;;19.99;nan;94217.16;5073991;28;20323;-70
2022/06/10 01:09:30;;;;;;;5.38;4.43;;;;;;;19.96;nan;94217.41;5072733;28;20208;-70
2022/06/10 01:12:41;;;;;;;5.45;5.05;;;;;;;19.73;nan;94219.31;5072684;28;20209;-70
2022/06/10 01:15:23;;;;;;;6.43;5.35;;;;;;;19.15;nan;94225.78;5073624;28;20208;-70
2022/06/10 01:18:02;;;;;;;6.05;5.63;;;;;;;18.95;nan;94223.03;5072424;28;20673;-69
2022/06/10 01:20:38;;;;;;;7.43;5.45;;;;;;;19.09;nan;94215.97;5074890;28;20236;-70
2022/06/10 01:23:43;;;;;;;5.72;5.40;;;;;;;18.58;nan;94222.50;5072934;28;20614;-70
2022/06/10 01:29:52;;;;;;;8.25;5.85;;;;;;;18.55;nan;94221.94;5072881;28;20282;-71
2022/06/10 01:32:27;;;;;;;6.20;5.75;;;;;;;18.65;nan;94222.88;5073786;28;20205;-71
2022/06/10 01:35:03;;;;;;;7.90;7.40;;;;;;;18.71;nan;94222.41;5073635;28;20799;-70
2022/06/10 01:37:38;;;;;;;7.35;6.65;;;;;;;18.83;nan;94223.19;5074308;28;20304;-70
2022/06/10 01:40:15;;;;;;;7.72;6.43;;;;;;;18.46;nan;94230.38;5072913;28;21796;-70
2022/06/10 01:42:46;;;;;;;7.30;6.05;;;;;;;18.43;nan;94222.91;5076097;28;20293;-70
2022/06/10 01:45:19;;;;;;;11.32;6.75;;;;;;;18.26;nan;94224.19;5076095;28;20206;-69
2022/06/10 01:47:54;;;;;;;8.38;7.57;;;;;;;18.45;nan;94231.31;5078330;28;20213;-69
2022/06/10 01:50:27;;;;;;;6.50;5.88;;;;;;;18.62;nan;94236.81;5077958;28;20204;-71
2022/06/10 01:52:58;;;;;;;7.07;6.32;;;;;;;18.85;nan;94223.88;5077581;28;20878;-70
2022/06/10 01:55:30;;;;;;;6.38;5.88;;;;;;;19.11;nan;94229.53;5077964;28;20198;-71
2022/06/10 01:58:01;;;;;;;6.82;5.85;;;;;;;19.15;nan;94233.50;5078358;28;20209;-69
2022/06/10 02:00:31;;;;;;;6.80;6.07;;;;;;;19.13;nan;94228.47;5077916;28;20193;-70
2022/06/10 02:03:03;;;;;;;7.72;6.90;;;;;;;18.97;nan;94228.06;5077446;28;20687;-73
2022/06/10 02:05:33;;;;;;;8.32;7.53;;;;;;;19.06;nan;94232.47;5077531;28;20205;-69
2022/06/10 02:08:11;;;;;;;7.75;7.18;;;;;;;19.20;nan;94236.53;5077021;28;20202;-69
2022/06/10 02:10:44;;;;;;;12.32;7.25;;;;;;;19.12;nan;94236.31;5076230;28;20686;-71
2022/06/10 02:13:16;;;;;;;8.35;6.15;;;;;;;19.31;nan;94231.31;5077869;28;20585;-69
2022/06/10 02:15:48;;;;;;;7.28;6.70;;;;;;;19.36;nan;94239.50;5076823;28;20217;-69
2022/06/10 02:18:21;;;;;;;18.90;8.35;;;;;;;19.52;nan;94239.94;5076560;28;20202;-70
2022/06/10 02:20:51;;;;;;;7.18;6.60;;;;;;;19.57;nan;94237.78;5076364;28;20342;-70
2022/06/10 02:23:25;;;;;;;5.95;5.45;;;;;;;19.45;nan;94238.75;5076139;28;20204;-71
2022/06/10 02:25:55;;;;;;;6.05;5.55;;;;;;;19.70;nan;94233.28;5076401;28;20241;-70
2022/06/10 02:28:29;;;;;;;10.15;6.78;;;;;;;20.03;nan;94228.84;5077177;28;20202;-69
2022/06/10 02:31:01;;;;;;;8.10;7.30;;;;;;;20.26;nan;94238.03;5075856;28;20374;-69
2022/06/10 02:33:30;;;;;;;6.70;6.10;;;;;;;20.25;nan;94239.00;5076158;28;20249;-70
2022/06/10 02:36:04;;;;;;;6.57;6.07;;;;;;;19.99;nan;94240.34;5077154;28;20767;-69
2022/06/10 02:38:39;;;;;;;7.40;6.85;;;;;;;19.78;nan;94239.56;5076118;28;20708;-70
2022/06/10 02:41:14;;;;;;;7.10;6.60;;;;;;;19.79;nan;94241.19;5075879;28;20228;-70
2022/06/10 02:43:49;;;;;;;7.50;6.72;;;;;;;19.70;nan;94248.75;5077206;28;20819;-72
2022/06/10 02:46:22;;;;;;;7.03;6.43;;;;;;;19.86;nan;94247.47;5077734;28;20205;-70
2022/06/10 02:49:01;;;;;;;7.05;6.45;;;;;;;19.63;nan;94254.50;5077314;28;20202;-72
2022/06/10 02:51:28;;;;;;;6.30;5.88;;;;;;;19.76;nan;94256.91;5077472;28;20205;-70
2022/06/10 02:53:55;;;;;;;6.93;6.22;;;;;;;19.61;nan;94248.66;5076227;28;20672;-70
2022/06/10 02:56:24;;;;;;;7.38;6.78;;;;;;;19.74;nan;94258.81;5077494;28;20201;-70
2022/06/10 03:01:48;;;;;;;6.43;5.97;;;;;;;19.70;nan;94253.06;5075654;28;20615;-73
2022/06/10 03:04:30;;;;;;;6.05;5.55;;;;;;;19.59;nan;94251.38;5075221;28;20209;-70
2022/06/10 03:07:22;;;;;;;6.97;5.18;;;;;;;19.43;nan;94253.53;5076099;28;20217;-70
2022/06/10 03:10:03;;;;;;;5.75;5.35;;;;;;;19.83;nan;94263.19;5076076;28;20232;-72
2022/06/10 03:12:37;;;;;;;6.40;5.90;;;;;;;19.83;nan;94260.59;5075633;28;21029;-70
2022/06/10 03:15:16;;;;;;;6.78;6.15;;;;;;;19.91;nan;94255.66;5077561;28;20291;-70
2022/06/10 03:17:51;;;;;;;6.80;6.32;;;;;;;19.98;nan;94261.94;5077079;28;20205;-70
2022/06/10 03:20:28;;;;;;;6.78;6.18;;;;;;;20.14;nan;94256.31;5076991;28;20587;-70
2022/06/10 03:23:13;;;;;;;7.10;6.55;;;;;;;20.31;nan;94259.09;5076385;28;20325;-71
2022/06/10 03:25:43;;;;;;;6.10;5.63;;;;;;;20.45;nan;94260.56;5076433;28;20248;-72
2022/06/10 03:28:18;;;;;;;5.93;5.47;;;;;;;20.51;nan;94260.03;5076778;28;20209;-70
2022/06/10 03:30:52;;;;;;;10.38;5.60;;;;;;;20.53;nan;94265.06;5077086;28;20254;-71
2022/06/10 03:33:26;;;;;;;9.00;5.68;;;;;;;20.54;nan;94264.13;5076176;28;20228;-70
2022/06/10 03:36:01;;;;;;;5.57;5.25;;;;;;;20.43;nan;94264.22;5076771;28;20251;-70
2022/06/10 03:38:29;;;;;;;7.10;5.40;;;;;;;20.54;nan;94261.53;5076484;28;20205;-72
2022/06/10 03:40:59;;;;;;;5.50;5.00;;;;;;;20.55;nan;94269.13;5076629;28;20221;-71
2022/06/10 03:43:26;;;;;;;11.40;10.25;;;;;;;20.51;nan;94272.13;5076464;28;20208;-74
2022/06/10 03:45:59;;;;;;;13.32;11.93;;;;;;;20.51;nan;94265.19;5075928;28;20235;-70
2022/06/10 03:48:28;;;;;;;8.57;7.88;;;;;;;20.59;nan;94267.94;5076381;28;20565;-71
2022/06/10 03:50:57;;;;;;;6.80;6.25;;;;;;;20.55;nan;94268.31;5078343;28;20201;-70
2022/06/10 03:53:25;;;;;;;7.45;6.75;;;;;;;20.55;nan;94274.28;5076971;28;20201;-70
2022/06/10 03:55:53;;;;;;;7.10;6.10;;;;;;;20.48;nan;94280.13;5076779;28;20607;-73
2022/06/10 03:58:21;;;;;;;11.50;9.35;;;;;;;20.42;nan;94284.03;5075572;28;21143;-70
2022/06/10 04:00:48;;;;;;;11.20;10.05;;;;;;;20.24;nan;94278.63;5075821;28;20210;-73
2022/06/10 04:03:15;;;;;;;15.20;13.70;;;;;;;20.07;nan;94281.78;5075480;28;20260;-70
2022/06/10 04:05:42;;;;;;;7.03;6.57;;;;;;;19.84;nan;94280.28;5076139;28;20228;-71
2022/06/10 04:08:11;;;;;;;6.15;5.63;;;;;;;19.62;nan;94276.06;5075711;28;20288;-71
2022/06/10 04:10:38;;;;;;;7.30;6.63;;;;;;;19.64;nan;94280.16;5076487;28;21211;-71
2022/06/10 04:13:07;;;;;;;16.17;7.10;;;;;;;19.76;nan;94274.97;5075532;28;20212;-71
2022/06/10 04:15:34;;;;;;;7.63;7.03;;;;;;;19.71;nan;94280.50;5076067;28;20321;-73
2022/06/10 04:18:01;;;;;;;14.70;10.27;;;;;;;19.80;nan;94277.13;5075913;28;20201;-71
2022/06/10 04:20:30;;;;;;;14.88;11.98;;;;;;;19.80;nan;94284.06;5076189;28;20209;-70
2022/06/10 04:22:58;;;;;;;14.10;12.23;;;;;;;19.75;nan;94283.63;5075038;28;20248;-71
2022/06/10 04:25:27;;;;;;;8.23;7.40;;;;;;;19.50;nan;94275.31;5074178;28;20229;-72
2022/06/10 04:27:55;;;;;;;8.02;7.50;;;;;;;19.42;nan;94271.69;5074199;28;20204;-71
2022/06/10 04:30:25;;;;;;;7.82;7.32;;;;;;;19.43;nan;94284.44;5073956;28;20235;-71
2022/06/10 04:32:54;;;;;;;6.97;6.40;;;;;;;19.28;nan;94283.13;5073573;28;20206;-71
2022/06/10 04:35:22;;;;;;;7.47;6.88;;;;;;;19.37;nan;94282.34;5074119;28;20205;-71
2022/06/10 04:37:49;;;;;;;8.23;7.63;;;;;;;19.40;nan;94273.56;5073203;28;20262;-72
2022/06/10 04:40:20;;;;;;;13.70;12.13;;;;;;;19.50;nan;94289.94;5073902;28;20259;-71
2022/06/10 04:42:50;;;;;;;8.55;7.72;;;;;;;19.08;nan;94282.09;5075325;28;20342;-71
2022/06/10 04:45:20;;;;;;;8.95;8.30;;;;;;;19.06;nan;94293.47;5075668;28;20197;-71
2022/06/10 04:47:46;;;;;;;8.45;7.55;;;;;;;18.94;nan;94295.25;5074084;28;20213;-73
2022/06/10 04:50:17;;;;;;;9.88;7.90;;;;;;;18.93;nan;94299.59;5073722;28;20206;-73
2022/06/10 04:52:44;;;;;;;16.10;11.85;;;;;;;19.03;nan;94294.53;5073842;28;20228;-74
2022/06/10 04:55:12;;;;;;;8.13;7.32;;;;;;;18.95;nan;94297.72;5073643;28;20289;-73
2022/06/10 04:57:41;;;;;;;9.07;8.30;;;;;;;18.96;nan;94298.53;5073946;28;20209;-72
2022/06/10 05:00:15;;;;;;;8.50;7.63;;;;;;;18.89;nan;94302.50;5074562;28;20895;-71
2022/06/10 05:02:42;;;;;;;8.90;8.25;;;;;;;19.03;nan;94303.09;5074707;28;20220;-72
2022/06/10 05:05:09;;;;;;;9.70;7.75;;;;;;;18.87;nan;94312.94;5075746;28;21401;-72
2022/06/10 05:07:36;;;;;;;9.02;7.88;;;;;;;18.97;nan;94315.63;5075303;28;20206;-71
2022/06/10 05:10:04;;;;;;;9.00;8.07;;;;;;;18.76;nan;94312.97;5075546;28;20910;-73
2022/06/10 05:12:31;;;;;;;9.63;8.63;;;;;;;18.72;nan;94324.41;5074794;28;20193;-72
2022/06/10 05:14:58;;;;;;;8.50;7.70;;;;;;;18.31;nan;94319.84;5075284;28;20206;-72
2022/06/10 05:17:27;;;;;;;10.13;7.43;;;;;;;18.23;nan;94330.69;5075777;28;20213;-74
2022/06/10 05:19:54;;;;;;;8.65;7.85;;;;;;;18.28;nan;94318.31;5079309;28;20194;-71
2022/06/10 05:22:21;;;;;;;9.90;8.05;;;;;;;18.57;nan;94328.13;5078751;28;20236;-72
2022/06/10 05:24:48;;;;;;;10.02;9.10;;;;;;;18.52;nan;94319.97;5079300;28;20224;-74
2022/06/10 05:27:15;;;;;;;9.80;8.93;;;;;;;18.52;nan;94325.94;5078178;28;20229;-71
2022/06/10 05:29:42;;;;;;;9.80;8.85;;;;;;;18.74;nan;94319.97;5079266;28;20210;-74
2022/06/10 05:32:09;;;;;;;9.85;8.85;;;;;;;18.73;nan;94323.50;5077964;28;20704;-72
2022/06/10 05:34:47;;;;;;;10.48;9.40;;;;;;;18.59;nan;94321.09;5078814;28;20244;-72
2022/06/10 05:37:15;;;;;;;9.05;8.35;;;;;;;18.81;nan;94318.53;5078810;28;20286;-69
2022/06/10 05:39:42;;;;;;;9.25;8.57;;;;;;;18.71;nan;94319.38;5079002;28;20244;-71
2022/06/10 05:42:10;;;;;;;9.85;9.07;;;;;;;18.70;nan;94328.88;5078055;28;21635;-75
2022/06/10 05:44:41;;;;;;;8.95;8.25;;;;;;;18.93;nan;94319.38;5078538;28;20263;-73
2022/06/10 05:47:09;;;;;;;8.77;8.02;;;;;;;18.84;nan;94333.75;5078174;28;20213;-72
2022/06/10 05:49:40;;;;;;;9.02;8.32;;;;;;;19.00;nan;94321.34;5078573;28;20296;-72
2022/06/10 05:52:10;;;;;;;9.10;8.43;;;;;;;18.96;nan;94322.53;5077787;28;20692;-73
2022/06/10 05:54:38;;;;;;;9.70;8.45;;;;;;;18.97;nan;94321.59;5078533;28;20202;-72
2022/06/10 05:57:05;;;;;;;9.27;8.57;;;;;;;19.24;nan;94323.75;5077681;28;20581;-72
2022/06/10 05:59:33;;;;;;;8.48;7.97;;;;;;;19.46;nan;94325.44;5078310;28;20705;-72
2022/06/10 06:02:00;;;;;;;9.57;8.68;;;;;;;19.40;nan;94328.50;5077668;28;20287;-72
2022/06/10 06:04:27;;;;;;;14.15;8.45;;;;;;;19.19;nan;94337.94;5078411;28;20209;-75
2022/06/10 06:06:55;;;;;;;9.05;8.35;;;;;;;19.38;nan;94332.94;5078206;28;20193;-70
2022/06/10 06:09:23;;;;;;;10.70;9.63;;;;;;;19.43;nan;94335.97;5077782;28;20701;-74
2022/06/10 06:11:54;;;;;;;9.20;8.52;;;;;;;19.44;nan;94337.63;5077516;28;20206;-72
2022/06/10 06:14:22;;;;;;;8.88;8.10;;;;;;;19.53;nan;94336.94;5077947;28;20198;-70
2022/06/10 06:16:52;;;;;;;9.65;8.85;;;;;;;19.52;nan;94332.72;5077950;28;20292;-72
2022/06/10 06:19:19;;;;;;;10.40;9.38;;;;;;;19.34;nan;94331.56;5077396;28;20205;-72
2022/06/10 06:21:46;;;;;;;8.90;8.20;;;;;;;19.34;nan;94339.28;5075964;28;20238;-70
2022/06/10 06:24:16;;;;;;;10.77;9.93;;;;;;;19.24;nan;94330.66;5075528;28;20209;-74
2022/06/10 06:26:43;;;;;;;11.25;10.25;;;;;;;19.10;nan;94343.78;5075619;28;20237;-71
2022/06/10 06:29:10;;;;;;;9.68;8.98;;;;;;;19.02;nan;94350.38;5073939;28;20201;-73
2022/06/10 06:31:37;;;;;;;10.88;9.77;;;;;;;18.91;nan;94355.53;5076565;28;20591;-71
2022/06/10 06:34:04;;;;;;;10.07;9.07;;;;;;;18.85;nan;94350.84;5076049;28;20194;-74
2022/06/10 06:36:38;;;;;;;9.60;8.77;;;;;;;18.91;nan;94350.38;5076063;28;20312;-71
2022/06/10 06:39:05;;;;;;;10.95;9.98;;;;;;;18.96;nan;94350.84;5077009;28;20205;-71
2022/06/10 06:41:34;;;;;;;12.77;11.55;;;;;;;18.96;nan;94350.84;5075618;28;20206;-72
2022/06/10 06:44:04;;;;;;;11.90;9.85;;;;;;;18.95;nan;94356.94;5076259;28;20229;-70
2022/06/10 06:46:34;;;;;;;10.40;9.57;;;;;;;19.01;nan;94351.31;5075866;28;20198;-70
2022/06/10 06:49:02;;;;;;;12.30;11.10;;;;;;;18.86;nan;94352.47;5076159;28;20208;-71
2022/06/10 06:51:29;;;;;;;10.88;9.98;;;;;;;19.10;nan;94357.47;5075448;28;20197;-71
2022/06/10 06:53:57;;;;;;;11.25;10.27;;;;;;;18.97;nan;94349.91;5075243;28;20205;-69
2022/06/10 06:56:24;;;;;;;9.50;8.55;;;;;;;18.90;nan;94353.88;5077266;28;20190;-73
2022/06/10 06:58:53;;;;;;;9.88;9.18;;;;;;;18.82;nan;94351.06;5077628;28;20846;-70
2022/06/10 07:01:20;;;;;;;12.13;8.63;;;;;;;18.84;nan;94351.78;5069796;28;20305;-72
2022/06/10 07:03:48;;;;;;;10.15;9.35;;;;;;;18.97;nan;94351.66;5076772;28;21470;-72
2022/06/10 07:06:15;;;;;;;10.77;9.77;;;;;;;18.91;nan;94347.81;5076545;28;20805;-69
2022/06/10 07:08:42;;;;;;;10.98;9.98;;;;;;;19.10;nan;94351.50;5077311;28;20281;-71
2022/06/10 07:11:10;;;;;;;13.85;10.90;;;;;;;19.12;nan;94347.88;5076459;28;20285;-72
2022/06/10 07:13:37;;;;;;;13.27;10.75;;;;;;;19.13;nan;94351.28;5076561;28;20205;-71
2022/06/10 07:16:08;;;;;;;10.88;10.07;;;;;;;19.21;nan;94346.34;5076427;28;20312;-71
2022/06/10 07:18:35;;;;;;;10.68;9.77;;;;;;;19.36;nan;94348.53;5077279;28;20193;-71
2022/06/10 07:21:02;;;;;;;9.98;9.27;;;;;;;19.41;nan;94348.16;5076835;28;20209;-70
2022/06/10 07:23:29;;;;;;;11.57;10.45;;;;;;;19.47;nan;94345.13;5076513;28;20240;-73
2022/06/10 07:25:56;;;;;;;10.50;9.48;;;;;;;18.97;nan;94352.47;5076280;28;20240;-70
2022/06/10 07:28:23;;;;;;;12.07;10.05;;;;;;;19.01;nan;94337.63;5076961;28;20206;-70
2022/06/10 07:30:50;;;;;;;10.98;10.15;;;;;;;19.28;nan;94352.66;5075628;28;20213;-70
2022/06/10 07:33:18;;;;;;;13.63;10.90;;;;;;;19.32;nan;94354.03;5076341;28;21078;-70
2022/06/10 07:35:45;;;;;;;13.77;11.07;;;;;;;19.15;nan;94341.69;5076228;28;20198;-71
2022/06/10 07:38:12;;;;;;;12.15;11.15;;;;;;;19.33;nan;94358.25;5076442;28;20676;-70
2022/06/10 07:43:26;;;;;;;12.32;11.32;;;;;;;19.21;nan;94369.53;5076101;28;21796;-70
2022/06/10 07:45:55;;;;;;;11.43;10.25;;;;;;;19.25;nan;94358.88;5076210;28;20212;-73
2022/06/10 07:48:24;;;;;;;12.02;11.02;;;;;;;19.50;nan;94355.22;5076106;28;20212;-70
2022/06/10 07:50:50;;;;;;;16.58;11.15;;;;;;;19.60;nan;94356.09;5075338;28;20924;-70
2022/06/10 07:53:18;;;;;;;11.75;10.85;;;;;;;19.45;nan;94361.63;5076184;28;20221;-69
2022/06/10 07:55:47;;;;;;;11.90;10.85;;;;;;;19.38;nan;94356.13;5075316;28;20645;-70
2022/06/10 07:58:15;;;;;;;15.20;10.63;;;;;;;19.46;nan;94366.66;5075645;28;20685;-70
2022/06/10 08:00:42;;;;;;;13.57;12.27;;;;;;;19.79;nan;94364.94;5076153;28;20198;-73
2022/06/10 08:03:09;;;;;;;87.28;56.15;;;;;;;20.04;nan;94370.53;5075016;28;20382;-73
2022/06/10 08:05:37;;;;;;;12.32;11.23;;;;;;;20.11;nan;94360.56;5075936;28;21427;-71
2022/06/10 08:08:05;;;;;;;9.30;8.70;;;;;;;20.20;nan;94366.72;5075383;28;20583;-70
2022/06/10 08:10:34;;;;;;;9.57;8.88;;;;;;;20.30;nan;94360.66;5075513;28;20708;-72
2022/06/10 08:13:01;;;;;;;11.25;10.02;;;;;;;20.52;nan;94370.09;5075134;28;20230;-70
2022/06/10 08:15:29;;;;;;;8.30;7.57;;;;;;;20.28;nan;94367.75;5075664;28;20210;-70
2022/06/10 08:17:57;;;;;;;8.00;7.40;;;;;;;20.23;nan;94369.88;5075007;28;20202;-70
2022/06/10 08:23:10;;;;;;;194.48;131.73;;;;;;;20.27;nan;94370.44;5074054;28;20240;-69
2022/06/10 08:25:37;;;;;;;10.48;9.38;;;;;;;20.44;nan;94364.72;5074771;28;20233;-72
2022/06/10 08:28:05;;;;;;;9.15;8.38;;;;;;;20.35;nan;94371.44;5075509;28;20205;-69
2022/06/10 08:30:31;;;;;;;9.93;9.02;;;;;;;20.40;nan;94375.44;5075534;28;20201;-70
2022/06/10 08:32:59;;;;;;;7.68;6.80;;;;;;;20.29;nan;94373.72;5075338;28;20202;-71
2022/06/10 08:35:26;;;;;;;9.07;8.13;;;;;;;20.47;nan;94372.22;5074489;28;20204;-69
2022/06/10 08:37:53;;;;;;;9.13;7.88;;;;;;;20.56;nan;94383.53;5075272;28;20274;-70
2022/06/10 08:40:28;;;;;;;8.07;7.40;;;;;;;20.37;nan;94387.63;5075367;28;20225;-69
2022/06/10 08:43:02;;;;;;;12.40;10.98;;;;;;;20.34;nan;94376.72;5075147;28;20689;-71
2022/06/10 08:45:34;;;;;;;9.05;8.18;;;;;;;20.49;nan;94395.31;5075063;28;20201;-72
2022/06/10 08:48:16;;;;;;;11.60;10.18;;;;;;;20.63;nan;94382.91;5075300;28;20198;-69
2022/06/10 08:50:53;;;;;;;8.40;7.15;;;;;;;20.70;nan;94394.34;5075357;28;20756;-72
2022/06/10 08:53:35;;;;;;;8.95;7.72;;;;;;;20.68;nan;94400.59;5081429;28;20201;-69
2022/06/10 08:56:14;;;;;;;11.60;7.05;;;;;;;20.48;nan;94404.84;5080480;28;20203;-71
2022/06/10 08:58:51;;;;;;;6.65;6.15;;;;;;;20.36;nan;94403.22;5076705;28;20236;-69
2022/06/10 09:01:22;;;;;;;6.90;6.43;;;;;;;20.41;nan;94397.72;5080815;28;20197;-70
2022/06/10 09:03:56;;;;;;;7.03;6.43;;;;;;;20.60;nan;94387.50;5080067;28;20225;-69
2022/06/10 09:06:29;;;;;;;7.68;7.07;;;;;;;21.02;nan;94394.22;5080997;28;20201;-72
2022/06/10 09:09:01;;;;;;;9.13;8.13;;;;;;;21.03;nan;94389.88;5081485;28;20676;-70
2022/06/10 09:11:35;;;;;;;7.65;6.85;;;;;;;21.16;nan;94407.72;5081181;28;20198;-71
2022/06/10 09:14:09;;;;;;;7.82;7.28;;;;;;;21.10;nan;94392.72;5081546;28;20201;-72
2022/06/10 09:16:42;;;;;;;11.13;9.48;;;;;;;21.44;nan;94404.44;5081208;28;20228;-72
2022/06/10 09:19:22;;;;;;;7.35;6.40;;;;;;;21.47;nan;94399.00;5080448;28;20201;-74
2022/06/10 09:21:57;;;;;;;7.78;7.05;;;;;;;21.75;nan;94402.59;5081782;28;20620;-72
2022/06/10 09:24:28;;;;;;;16.83;9.88;;;;;;;22.01;nan;94408.06;5080290;28;20232;-71
2022/06/10 09:27:06;;;;;;;9.25;8.48;;;;;;;21.95;nan;94393.88;5078797;28;20229;-72
2022/06/10 09:29:37;;;;;;;8.27;7.60;;;;;;;22.24;nan;94401.66;5080606;28;20691;-72
2022/06/10 09:32:09;;;;;;;10.07;8.40;;;;;;;22.31;nan;94396.72;5082303;28;20198;-72
2022/06/10 09:34:46;;;;;;;13.10;9.73;;;;;;;22.47;nan;94401.34;5081460;28;20201;-72
2022/06/10 09:37:23;;;;;;;8.68;7.63;;;;;;;21.76;nan;94393.06;5081210;28;20201;-74
2022/06/10 09:43:00;;;;;;;13.57;9.98;;;;;;;21.67;nan;94400.66;5079855;28;20217;-72
2022/06/10 09:45:36;;;;;;;11.15;9.23;;;;;;;21.56;nan;94392.19;5081792;28;20194;-72
2022/06/10 09:48:17;;;;;;;6.00;5.57;;;;;;;21.43;nan;94402.78;5081137;28;20220;-73
2022/06/10 09:50:52;;;;;;;9.20;6.43;;;;;;;21.28;nan;94398.97;5081129;28;20198;-67
2022/06/10 09:53:36;;;;;;;5.82;5.38;;;;;;;20.61;nan;94392.53;5080572;28;20208;-67
2022/06/10 09:56:31;;;;;;;8.13;6.68;;;;;;;20.81;nan;94406.34;5079775;28;21592;-67
2022/06/10 09:59:15;;;;;;;6.07;5.47;;;;;;;20.67;nan;94414.44;5080115;28;20198;-67
2022/06/10 10:01:52;;;;;;;9.00;8.10;;;;;;;20.59;nan;94416.84;5081292;28;20205;-67
2022/06/10 10:04:30;;;;;;;8.25;6.32;;;;;;;20.87;nan;94420.50;5078189;28;20744;-66
2022/06/10 10:07:04;;;;;;;6.25;5.80;;;;;;;20.89;nan;94431.53;5077295;28;20785;-67
2022/06/10 10:09:43;;;;;;;7.18;6.50;;;;;;;21.03;nan;94426.84;5077572;28;20209;-68
2022/06/10 10:12:19;;;;;;;23.73;16.83;;;;;;;20.91;nan;94433.03;5078230;28;20197;-68
2022/06/10 10:14:56;;;;;;;12.70;10.68;;;;;;;20.84;nan;94431.09;5077970;28;20209;-69
2022/06/10 10:17:36;;;;;;;8.43;6.45;;;;;;;20.83;nan;94435.44;5076466;28;20303;-72
2022/06/10 10:20:11;;;;;;;5.80;5.40;;;;;;;20.86;nan;94435.19;5078168;28;20205;-73
2022/06/10 10:22:54;;;;;;;4.88;4.47;;;;;;;20.27;nan;94440.94;5075332;28;20205;-71
2022/06/10 10:25:23;;;;;;;6.15;5.65;;;;;;;20.03;nan;94437.75;5077688;28;20356;-72
2022/06/10 10:27:53;;;;;;;8.38;7.78;;;;;;;20.01;nan;94429.31;5077246;28;20234;-71
2022/06/10 10:30:28;;;;;;;9.20;8.60;;;;;;;20.05;nan;94433.25;5076757;28;20259;-71
2022/06/10 10:32:59;;;;;;;9.43;8.63;;;;;;;20.14;nan;94435.13;5077382;28;20208;-71
2022/06/10 10:35:31;;;;;;;9.27;8.48;;;;;;;20.05;nan;94446.16;5077479;28;20703;-71
2022/06/10 10:38:00;;;;;;;10.18;9.07;;;;;;;19.85;nan;94454.69;5077008;28;20201;-71
2022/06/10 10:40:35;;;;;;;9.52;8.85;;;;;;;20.07;nan;94444.28;5077100;28;21036;-72
2022/06/10 10:43:07;;;;;;;9.05;8.25;;;;;;;20.00;nan;94451.72;5077534;28;20673;-71
2022/06/10 10:45:40;;;;;;;11.57;10.30;;;;;;;19.81;nan;94455.84;5077269;28;20301;-71
2022/06/10 10:48:17;;;;;;;9.80;9.00;;;;;;;19.77;nan;94447.56;5076647;28;20699;-71
2022/06/10 10:50:58;;;;;;;10.10;9.15;;;;;;;19.88;nan;94450.09;5077237;28;20607;-70
2022/06/10 10:53:31;;;;;;;10.40;9.48;;;;;;;20.08;nan;94443.34;5076688;28;20688;-71
2022/06/10 10:56:01;;;;;;;13.25;10.25;;;;;;;19.83;nan;94433.34;5077532;28;20267;-71
2022/06/10 10:58:31;;;;;;;11.85;10.65;;;;;;;19.99;nan;94433.78;5077520;28;20214;-71
2022/06/10 11:01:02;;;;;;;10.98;9.77;;;;;;;19.96;nan;94444.34;5077266;28;20586;-72
2022/06/10 11:03:31;;;;;;;10.13;8.95;;;;;;;19.92;nan;94424.88;5077073;28;20299;-72
2022/06/10 11:06:00;;;;;;;11.32;9.05;;;;;;;19.70;nan;94423.22;5077135;28;20216;-71
2022/06/10 11:08:30;;;;;;;10.65;9.57;;;;;;;19.91;nan;94426.66;5076437;28;20259;-72
2022/06/10 11:11:18;;;;;;;10.57;9.30;;;;;;;20.23;nan;94429.22;5077004;28;20590;-73
2022/06/10 11:13:54;;;;;;;11.35;10.20;;;;;;;20.32;nan;94433.63;5075998;28;21105;-69
2022/06/10 11:16:38;;;;;;;11.20;9.02;;;;;;;20.56;nan;94432.56;5075725;28;20589;-71
2022/06/10 11:19:41;;;;;;;10.27;9.43;;;;;;;20.55;nan;94430.94;5076761;28;20316;-71
2022/06/10 11:22:19;;;;;;;9.95;8.93;;;;;;;20.41;nan;94434.66;5069560;28;20284;-70
2022/06/10 11:24:51;;;;;;;10.85;8.23;;;;;;;20.50;nan;94427.94;5076656;28;20233;-71
2022/06/10 11:27:28;;;;;;;9.48;8.55;;;;;;;20.66;nan;94423.13;5075325;28;20703;-71
2022/06/10 11:30:01;;;;;;;8.85;8.05;;;;;;;20.84;nan;94426.75;5076284;28;20303;-70
2022/06/10 11:32:34;;;;;;;8.80;8.20;;;;;;;20.95;nan;94418.13;5075249;28;20633;-70
2022/06/10 11:35:04;;;;;;;11.48;9.77;;;;;;;21.29;nan;94416.91;5075883;28;20714;-70
2022/06/10 11:37:38;;;;;;;10.02;9.20;;;;;;;21.36;nan;94419.78;5076735;28;20205;-70
2022/06/10 11:40:14;;;;;;;10.05;9.05;;;;;;;21.41;nan;94425.38;5075645;28;20297;-71
2022/06/10 11:42:47;;;;;;;10.40;9.25;;;;;;;21.94;nan;94425.06;5075888;28;20189;-71
2022/06/10 11:45:21;;;;;;;9.27;8.48;;;;;;;22.54;nan;94415.34;5074551;28;20225;-70
2022/06/10 11:47:54;;;;;;;9.27;8.57;;;;;;;22.44;nan;94414.56;5073950;28;20774;-69
2022/06/10 11:50:28;;;;;;;8.65;7.90;;;;;;;22.15;nan;94415.41;5074550;28;20746;-70
2022/06/10 11:53:02;;;;;;;9.57;7.60;;;;;;;21.90;nan;94421.09;5073611;28;20283;-69
2022/06/10 11:55:32;;;;;;;10.07;9.07;;;;;;;21.60;nan;94406.50;5074090;28;20197;-70
2022/06/10 12:00:51;;;;;;;8.43;7.72;;;;;;;21.42;nan;94410.69;5076144;28;20601;-69
2022/06/10 12:03:26;;;;;;;8.02;7.40;;;;;;;22.08;nan;94409.16;5075495;28;20209;-70
2022/06/10 12:06:00;;;;;;;8.07;7.57;;;;;;;22.37;nan;94409.13;5075090;28;20205;-70
2022/06/10 12:08:43;;;;;;;8.15;7.65;;;;;;;22.34;nan;94402.44;5075261;28;20201;-70
2022/06/10 12:11:25;;;;;;;7.75;7.15;;;;;;;22.28;nan;94413.34;5075827;28;20201;-71
2022/06/10 12:14:01;;;;;;;7.20;6.70;;;;;;;22.01;nan;94408.06;5074883;28;20709;-70
2022/06/10 12:16:31;;;;;;;8.13;7.53;;;;;;;22.52;nan;94397.38;5075962;28;20193;-69
2022/06/10 12:19:06;;;;;;;9.95;9.25;;;;;;;22.52;nan;94396.59;5074918;28;20193;-70
2022/06/10 12:21:33;;;;;;;7.90;7.30;;;;;;;22.29;nan;94396.88;5075443;28;21668;-70
2022/06/10 12:24:01;;;;;;;7.78;7.10;;;;;;;21.91;nan;94387.34;5075309;28;20232;-69